createdAt,value
2022-08-22T00:00:21.664Z,99.99
2022-08-22T00:02:48.677Z,69.46
2022-08-22T00:02:49.197Z,81.00
2022-08-22T00:02:53.246Z,66.89
2022-08-22T00:02:58.875Z,99.46
2022-08-22T00:03:11.357Z,99.99
2022-08-22T00:03:11.931Z,98.28
2022-08-22T00:03:12.645Z,98.92
2022-08-22T00:06:05.076Z,99.99
2022-08-22T00:08:43.802Z,99.99
2022-08-22T00:11:26.169Z,99.99
2022-08-22T00:14:20.672Z,99.99
2022-08-22T00:17:04.711Z,99.99
2022-08-22T00:19:44.245Z,99.99
2022-08-22T00:22:50.973Z,99.99
2022-08-22T00:25:37.120Z,99.99
2022-08-22T00:28:11.981Z,99.99
2022-08-22T00:31:08.706Z,99.99
2022-08-22T00:34:01.841Z,99.99
2022-08-22T00:37:03.661Z,99.99
2022-08-22T00:39:41.673Z,99.99
2022-08-22T00:42:32.120Z,99.99
2022-08-22T00:45:14.495Z,99.99
2022-08-22T00:47:47.523Z,99.99
2022-08-22T00:50:27.429Z,99.99
2022-08-22T00:53:09.029Z,99.99
2022-08-22T00:56:07.554Z,99.99
2022-08-22T00:58:40.902Z,99.99
2022-08-22T01:01:15.417Z,99.99
2022-08-22T01:03:48.496Z,99.99
2022-08-22T01:06:18.509Z,99.99
2022-08-22T01:09:06.921Z,99.99
2022-08-22T01:12:12.773Z,99.99
2022-08-22T01:14:57.034Z,99.99
2022-08-22T01:17:42.439Z,99.99
2022-08-22T01:20:56.686Z,99.99
2022-08-22T01:23:45.045Z,99.99
2022-08-22T01:26:34.217Z,99.99
2022-08-22T01:29:29.753Z,99.99
2022-08-22T01:32:18.848Z,99.99
2022-08-22T01:35:17.814Z,99.99
2022-08-22T01:38:09.689Z,99.99
2022-08-22T01:41:07.466Z,99.99
2022-08-22T01:44:10.925Z,99.99
2022-08-22T01:46:47.646Z,99.99
2022-08-22T01:49:26.441Z,99.99
2022-08-22T01:52:14.083Z,99.99
2022-08-22T01:54:56.076Z,99.99
2022-08-22T01:57:28.150Z,99.99
2022-08-22T02:00:08.943Z,99.99
2022-08-22T02:03:18.453Z,99.99
2022-08-22T02:06:16.272Z,99.99
2022-08-22T02:09:05.041Z,99.99
2022-08-22T02:12:01.488Z,99.99
2022-08-22T02:14:34.479Z,99.99
2022-08-22T02:17:26.443Z,99.99
2022-08-22T02:20:08.972Z,99.99
2022-08-22T02:22:56.286Z,99.99
2022-08-22T02:25:49.109Z,99.99
2022-08-22T02:28:34.095Z,99.99
2022-08-22T02:31:08.097Z,99.99
2022-08-22T02:33:55.362Z,99.99
2022-08-22T02:37:08.087Z,99.99
2022-08-22T02:39:47.895Z,99.99
2022-08-22T02:42:37.342Z,99.99
2022-08-22T02:45:37.101Z,99.99
2022-08-22T03:04:17.855Z,99.99
2022-08-22T03:07:07.878Z,99.99
2022-08-22T03:09:45.918Z,99.99
2022-08-22T03:12:37.266Z,99.99
2022-08-22T03:15:15.392Z,99.99
2022-08-22T03:18:16.028Z,99.99
2022-08-22T03:20:55.281Z,99.99
2022-08-22T03:23:50.106Z,99.99
2022-08-22T03:26:26.250Z,99.99
2022-08-22T03:29:07.829Z,99.99
2022-08-22T03:31:38.181Z,99.99
2022-08-22T03:34:28.361Z,99.99
2022-08-22T03:37:16.680Z,99.99
2022-08-22T03:40:17.273Z,99.99
2022-08-22T03:42:58.975Z,99.99
2022-08-22T03:45:49.491Z,99.99
2022-08-22T03:48:47.579Z,99.99
2022-08-22T03:51:24.820Z,99.99
2022-08-22T03:54:31.667Z,99.99
2022-08-22T03:57:51.557Z,99.99
2022-08-22T04:00:56.628Z,99.99
2022-08-22T04:03:27.365Z,99.99
2022-08-22T04:06:06.800Z,99.99
2022-08-22T04:08:59.767Z,99.99
2022-08-22T04:11:40.451Z,99.99
2022-08-22T04:14:19.934Z,99.99
2022-08-22T04:17:03.099Z,99.99
2022-08-22T04:19:55.313Z,99.99
2022-08-22T04:22:40.207Z,99.99
2022-08-22T04:25:17.273Z,99.99
2022-08-22T04:28:14.618Z,99.99
2022-08-22T04:30:44.881Z,99.99
2022-08-22T04:33:19.263Z,99.99
2022-08-22T04:36:05.787Z,99.99
2022-08-22T04:38:48.899Z,99.99
2022-08-22T04:41:26.581Z,99.99
2022-08-22T04:44:04.983Z,99.99
2022-08-22T04:46:36.966Z,99.99
2022-08-22T04:49:34.266Z,99.99
2022-08-22T04:52:19.784Z,99.99
2022-08-22T04:54:55.315Z,99.99
2022-08-22T04:57:44.024Z,99.99
2022-08-22T05:00:15.178Z,99.99
2022-08-22T05:02:54.302Z,99.99
2022-08-22T05:05:36.136Z,99.99
2022-08-22T05:08:11.820Z,99.99
2022-08-22T05:10:48.785Z,99.99
2022-08-22T05:13:25.700Z,99.99
2022-08-22T05:16:01.100Z,99.99
2022-08-22T05:18:40.947Z,99.99
2022-08-22T05:21:14.045Z,99.99
2022-08-22T05:23:51.196Z,99.99
2022-08-22T05:26:23.368Z,99.99
2022-08-22T05:29:04.757Z,99.99
2022-08-22T05:31:39.123Z,99.99
2022-08-22T05:34:20.716Z,99.99
2022-08-22T05:37:03.176Z,99.99
2022-08-22T05:39:35.138Z,99.99
2022-08-22T05:42:06.069Z,99.99
2022-08-22T05:44:39.661Z,99.99
2022-08-22T05:47:20.126Z,99.99
2022-08-22T05:50:06.109Z,99.99
2022-08-22T05:53:20.588Z,99.99
2022-08-22T05:56:22.815Z,99.99
2022-08-22T05:59:08.562Z,99.99
2022-08-22T06:01:39.587Z,99.99
2022-08-22T06:04:18.340Z,99.99
2022-08-22T06:06:58.033Z,99.99
2022-08-22T06:09:36.850Z,99.99
2022-08-22T06:12:22.656Z,99.99
2022-08-22T06:15:13.744Z,99.99
2022-08-22T06:17:50.478Z,99.99
2022-08-22T06:20:35.105Z,99.99
2022-08-22T06:23:09.110Z,99.99
2022-08-22T06:25:44.996Z,99.99
2022-08-22T06:28:27.350Z,99.99
2022-08-22T06:30:59.056Z,99.99
2022-08-22T06:33:33.037Z,99.99
2022-08-22T06:36:29.143Z,99.99
2022-08-22T06:39:08.012Z,99.99
2022-08-22T06:41:49.344Z,99.99
2022-08-22T06:44:25.194Z,99.99
2022-08-22T06:47:01.541Z,99.99
2022-08-22T06:49:34.236Z,99.99
2022-08-22T06:52:09.761Z,99.99
2022-08-22T06:54:46.664Z,99.99
2022-08-22T06:57:37.313Z,99.99
2022-08-22T07:00:13.313Z,99.99
2022-08-22T07:02:48.254Z,99.99
2022-08-22T07:05:30.419Z,99.99
2022-08-22T07:08:06.608Z,99.99
2022-08-22T07:10:38.219Z,99.99
2022-08-22T07:13:12.916Z,99.99
2022-08-22T07:15:44.909Z,99.99
2022-08-22T07:18:22.044Z,99.99
2022-08-22T07:20:58.430Z,99.99
2022-08-22T07:23:34.533Z,99.99
2022-08-22T07:26:05.426Z,99.99
2022-08-22T07:28:58.578Z,99.99
2022-08-22T07:31:47.763Z,99.99
2022-08-22T07:34:23.133Z,99.99
2022-08-22T07:36:58.986Z,99.99
2022-08-22T07:39:38.788Z,99.99
2022-08-22T07:42:21.239Z,99.99
2022-08-22T07:45:21.760Z,99.99
2022-08-22T07:48:26.231Z,99.99
2022-08-22T07:51:10.226Z,99.99
2022-08-22T07:53:45.581Z,99.99
2022-08-22T07:56:21.357Z,99.99
2022-08-22T07:59:05.704Z,99.99
2022-08-22T08:01:39.478Z,99.99
2022-08-22T08:04:14.277Z,99.99
2022-08-22T08:06:45.390Z,99.99
2022-08-22T08:09:16.785Z,99.99
2022-08-22T08:11:49.113Z,99.99
2022-08-22T08:14:22.111Z,99.99
2022-08-22T08:17:12.159Z,99.99
2022-08-22T08:19:45.209Z,99.99
2022-08-22T08:22:22.790Z,99.99
2022-08-22T08:24:56.802Z,99.99
2022-08-22T08:27:50.520Z,99.99
2022-08-22T08:30:44.292Z,99.99
2022-08-22T08:33:24.454Z,99.99
2022-08-22T08:36:04.796Z,99.99
2022-08-22T08:38:45.212Z,99.99
2022-08-22T08:41:46.328Z,99.99
2022-08-22T08:44:28.651Z,99.99
2022-08-22T08:47:32.538Z,99.99
2022-08-22T08:50:30.493Z,99.99
2022-08-22T08:53:27.796Z,99.99
2022-08-22T08:56:35.714Z,99.99
2022-08-22T08:59:31.186Z,99.99
2022-08-22T09:02:13.727Z,99.99
2022-08-22T09:05:11.307Z,99.99
2022-08-22T09:07:50.060Z,99.99
2022-08-22T09:10:20.350Z,99.99
2022-08-22T09:13:20.444Z,99.99
2022-08-22T09:16:28.043Z,99.99
2022-08-22T09:19:07.769Z,99.99
2022-08-22T09:22:03.917Z,99.99
2022-08-22T09:24:43.763Z,99.99
2022-08-22T09:27:22.853Z,99.99
2022-08-22T09:30:05.874Z,99.99
2022-08-22T09:33:07.694Z,99.99
2022-08-22T09:35:58.177Z,99.99
2022-08-22T09:38:55.662Z,99.99
2022-08-22T09:41:39.277Z,99.99
2022-08-22T09:44:34.778Z,99.99
2022-08-22T09:47:27.964Z,99.99
2022-08-22T09:50:22.266Z,99.99
2022-08-22T09:53:20.549Z,99.99
2022-08-22T09:55:55.973Z,99.99
2022-08-22T09:59:06.571Z,99.99
2022-08-22T10:01:49.638Z,99.99
2022-08-22T10:04:44.235Z,99.99
2022-08-22T10:07:37.188Z,99.99
2022-08-22T10:10:43.612Z,99.99
2022-08-22T10:13:37.117Z,99.99
2022-08-22T10:16:29.525Z,99.99
2022-08-22T10:19:27.254Z,99.99
2022-08-22T10:22:30.176Z,99.99
2022-08-22T10:25:33.606Z,99.99
2022-08-22T10:28:20.614Z,99.99
2022-08-22T10:31:09.878Z,99.99
2022-08-22T10:33:54.353Z,99.99
2022-08-22T10:36:45.183Z,99.99
2022-08-22T10:39:59.924Z,99.99
2022-08-22T10:42:36.427Z,99.99
2022-08-22T10:45:37.797Z,99.99
2022-08-22T10:48:10.249Z,99.99
2022-08-22T10:50:57.902Z,99.99
2022-08-22T10:53:57.096Z,99.99
2022-08-22T11:08:23.299Z,99.99
2022-08-22T11:20:34.848Z,97.88
2022-08-22T11:23:43.891Z,97.65
2022-08-22T11:26:47.359Z,98.79
2022-08-22T11:29:27.473Z,98.34
2022-08-22T11:32:07.931Z,98.27
2022-08-22T11:35:25.312Z,97.08
2022-08-22T11:37:56.488Z,95.52
2022-08-22T11:40:48.531Z,95.89
2022-08-22T11:43:40.563Z,95.60
2022-08-22T11:46:41.804Z,95.39
2022-08-22T11:49:33.926Z,96.38
2022-08-22T11:52:27.971Z,95.83
2022-08-22T11:55:19.150Z,94.90
2022-08-22T11:58:00.380Z,95.00
2022-08-22T12:00:45.403Z,94.59
2022-08-22T12:03:23.187Z,94.52
2022-08-22T12:05:58.618Z,93.65
2022-08-22T12:08:32.957Z,93.54
2022-08-22T12:11:03.663Z,93.19
2022-08-22T12:13:42.237Z,93.21
2022-08-22T12:16:19.109Z,91.88
2022-08-22T12:18:56.378Z,90.26
2022-08-22T12:22:03.190Z,91.48
2022-08-22T12:24:52.107Z,90.45
2022-08-22T12:27:55.218Z,89.14
2022-08-22T12:30:47.907Z,89.20
2022-08-22T12:33:45.441Z,89.00
2022-08-22T12:36:24.773Z,88.72
2022-08-22T12:39:13.385Z,87.97
2022-08-22T12:42:08.745Z,87.32
2022-08-22T12:45:16.847Z,86.72
2022-08-22T12:48:04.892Z,86.79
2022-08-22T12:50:59.755Z,85.24
2022-08-22T12:53:43.542Z,85.35
2022-08-22T12:56:28.127Z,86.16
2022-08-22T12:59:17.858Z,86.09
2022-08-22T13:01:51.370Z,84.40
2022-08-22T13:04:33.151Z,82.64
2022-08-22T13:07:18.775Z,82.92
2022-08-22T13:09:58.945Z,82.38
2022-08-22T13:12:35.290Z,82.32
2022-08-22T13:15:32.383Z,81.23
2022-08-22T13:18:29.678Z,81.93
2022-08-22T13:21:05.616Z,82.45
2022-08-22T13:23:39.769Z,83.85
2022-08-22T13:26:24.417Z,84.02
2022-08-22T13:29:26.945Z,83.73
2022-08-22T13:32:02.673Z,82.62
2022-08-22T13:34:43.686Z,82.62
2022-08-22T13:37:20.243Z,81.58
2022-08-22T13:40:01.153Z,81.99
2022-08-22T13:42:35.291Z,81.78
2022-08-22T13:45:22.609Z,81.36
2022-08-22T13:48:08.751Z,81.48
2022-08-22T13:51:00.113Z,80.91
2022-08-22T13:53:49.019Z,80.48
2022-08-22T13:56:56.476Z,80.38
2022-08-22T13:59:50.272Z,79.87
2022-08-22T14:02:49.837Z,79.17
2022-08-22T14:05:32.100Z,77.96
2022-08-22T14:08:15.051Z,78.18
2022-08-22T14:11:11.979Z,78.33
2022-08-22T14:13:45.262Z,77.63
2022-08-22T14:16:26.469Z,77.44
2022-08-22T14:19:27.258Z,78.28
2022-08-22T14:22:05.261Z,77.12
2022-08-22T14:24:57.482Z,77.79
2022-08-22T14:27:36.051Z,75.74
2022-08-22T14:30:20.449Z,75.08
2022-08-22T14:33:06.823Z,75.46
2022-08-22T14:35:52.816Z,74.67
2022-08-22T14:38:27.309Z,74.83
2022-08-22T14:41:55.585Z,74.72
2022-08-22T14:44:39.112Z,70.48
2022-08-22T14:47:54.321Z,73.22
2022-08-22T14:50:42.370Z,71.75
2022-08-22T14:53:25.501Z,71.48
2022-08-22T14:56:13.464Z,71.58
2022-08-22T14:59:01.162Z,71.01
2022-08-22T15:01:34.577Z,67.94
2022-08-22T15:04:18.956Z,69.32
2022-08-22T15:06:59.750Z,71.02
2022-08-22T15:09:52.546Z,72.02
2022-08-22T15:12:22.893Z,70.95
2022-08-22T15:14:56.392Z,69.79
2022-08-22T15:17:50.996Z,69.52
2022-08-22T15:20:35.219Z,69.40
2022-08-22T15:23:22.144Z,65.91
2022-08-22T15:26:11.054Z,64.81
2022-08-22T15:28:53.337Z,63.07
2022-08-22T15:31:24.563Z,59.58
2022-08-22T15:34:14.352Z,62.94
2022-08-22T15:37:09.838Z,66.09
2022-08-22T15:40:40.599Z,70.34
2022-08-22T15:43:23.374Z,65.55
2022-08-22T15:46:10.057Z,64.92
2022-08-22T15:49:10.685Z,65.97
2022-08-22T15:51:50.347Z,64.01
2022-08-22T15:54:25.568Z,62.47
2022-08-22T15:57:14.760Z,62.30
2022-08-22T15:59:54.220Z,60.24
2022-08-22T16:02:36.813Z,62.11
2022-08-22T16:05:13.369Z,61.02
2022-08-22T16:08:08.103Z,66.94
2022-08-22T16:10:49.078Z,61.86
2022-08-22T16:13:32.444Z,61.00
2022-08-22T16:16:02.949Z,60.73
2022-08-22T16:18:40.536Z,60.92
2022-08-22T16:21:25.496Z,61.80
2022-08-22T16:23:57.929Z,61.32
2022-08-22T16:26:31.555Z,61.16
2022-08-22T16:29:18.057Z,61.74
2022-08-22T16:31:48.539Z,60.87
2022-08-22T16:34:21.830Z,59.97
2022-08-22T16:36:56.630Z,59.14
2022-08-22T16:39:26.691Z,58.82
2022-08-22T16:42:25.170Z,61.08
2022-08-22T16:44:58.600Z,59.39
2022-08-22T16:47:34.919Z,60.17
2022-08-22T16:50:19.997Z,61.06
2022-08-22T16:53:14.933Z,62.36
2022-08-22T16:55:50.096Z,61.06
2022-08-22T16:59:05.933Z,61.27
2022-08-22T17:02:17.204Z,60.52
2022-08-22T17:05:15.647Z,60.95
2022-08-22T17:08:16.354Z,60.21
2022-08-22T17:11:07.033Z,57.49
2022-08-22T17:14:01.651Z,58.12
2022-08-22T17:17:00.192Z,58.48
2022-08-22T17:19:54.331Z,59.21
2022-08-22T17:22:55.505Z,62.72
2022-08-22T17:25:39.930Z,60.71
2022-08-22T17:28:35.286Z,61.80
2022-08-22T17:31:42.474Z,63.87
2022-08-22T17:34:46.633Z,61.75
2022-08-22T17:37:41.980Z,59.98
2022-08-22T17:40:18.930Z,59.93
2022-08-22T17:43:32.776Z,63.33
2022-08-22T17:46:16.127Z,61.29
2022-08-22T17:48:52.594Z,61.50
2022-08-22T17:51:52.829Z,62.07
2022-08-22T17:54:44.001Z,62.80
2022-08-22T17:57:34.683Z,64.82
2022-08-22T18:00:17.696Z,61.58
2022-08-22T18:03:19.465Z,60.63
2022-08-22T18:05:55.345Z,58.40
2022-08-22T18:11:46.459Z,61.96
2022-08-22T18:14:34.674Z,61.90
2022-08-22T18:17:19.730Z,61.75
2022-08-22T18:19:58.010Z,61.04
2022-08-22T18:23:01.786Z,63.23
2022-08-22T18:25:44.934Z,61.99
2022-08-22T18:28:31.289Z,61.14
2022-08-22T18:31:28.529Z,60.25
2022-08-22T18:34:25.331Z,59.18
2022-08-22T18:37:05.264Z,60.65
2022-08-22T18:40:00.997Z,62.47
2022-08-22T18:42:46.613Z,60.66
2022-08-22T18:45:46.038Z,61.44
2022-08-22T18:48:31.753Z,61.27
2022-08-22T18:51:38.171Z,62.84
2022-08-22T18:54:08.781Z,61.68
2022-08-22T18:56:43.111Z,61.12
2022-08-22T18:59:43.185Z,62.37
2022-08-22T19:02:32.004Z,62.22
2022-08-22T19:05:35.527Z,63.06
2022-08-22T19:08:27.024Z,63.08
2022-08-22T19:11:38.028Z,63.05
2022-08-22T19:14:29.691Z,62.25
2022-08-22T19:17:18.461Z,61.50
2022-08-22T19:20:19.218Z,61.37
2022-08-22T19:22:51.361Z,62.41
2022-08-22T19:25:28.102Z,62.84
2022-08-22T19:28:12.597Z,64.15
2022-08-22T19:30:49.636Z,64.98
2022-08-22T19:33:34.197Z,65.12
2022-08-22T19:36:12.311Z,65.36
2022-08-22T19:38:59.784Z,65.45
2022-08-22T19:42:02.407Z,65.77
2022-08-22T19:44:43.355Z,66.35
2022-08-22T19:47:22.738Z,67.01
2022-08-22T19:49:53.864Z,66.49
2022-08-22T19:52:32.831Z,67.18
2022-08-22T19:55:27.424Z,67.26
2022-08-22T19:58:31.748Z,67.42
2022-08-22T20:01:34.449Z,68.15
2022-08-22T20:04:28.892Z,68.78
2022-08-22T20:07:31.470Z,69.21
2022-08-22T20:10:29.947Z,69.50
2022-08-22T20:13:19.920Z,69.61
2022-08-22T20:16:20.751Z,69.97
2022-08-22T20:19:09.588Z,70.72
2022-08-22T20:22:02.371Z,70.27
2022-08-22T20:24:46.758Z,71.16
2022-08-22T20:27:21.948Z,71.73
2022-08-22T20:30:03.410Z,72.24
2022-08-22T20:32:46.325Z,73.04
2022-08-22T20:35:24.466Z,72.44
2022-08-22T20:38:08.927Z,73.25
2022-08-22T20:40:54.946Z,74.55
2022-08-22T20:43:42.772Z,74.12
2022-08-22T20:46:43.786Z,75.49
2022-08-22T20:49:30.255Z,77.15
2022-08-22T20:52:03.744Z,78.54
2022-08-22T20:54:40.138Z,80.11
2022-08-22T20:57:21.886Z,80.33
2022-08-22T20:59:55.030Z,81.71
2022-08-22T21:02:56.438Z,82.18
2022-08-22T21:05:47.545Z,83.07
2022-08-22T21:08:23.004Z,82.09
2022-08-22T21:11:23.875Z,83.87
2022-08-22T21:13:54.834Z,84.87
2022-08-22T21:16:32.918Z,85.85
2022-08-22T21:19:03.656Z,86.68
2022-08-22T21:21:35.710Z,87.40
2022-08-22T21:24:09.213Z,88.52
2022-08-22T21:26:56.536Z,88.65
2022-08-22T21:29:32.678Z,88.96
2022-08-22T21:32:16.127Z,89.89
2022-08-22T21:34:51.184Z,90.58
2022-08-22T21:37:27.450Z,91.06
2022-08-22T21:40:20.500Z,91.06
2022-08-22T21:43:10.647Z,91.87
2022-08-22T21:45:40.944Z,91.81
2022-08-22T21:48:38.260Z,92.51
2022-08-22T21:51:43.167Z,93.05
2022-08-22T21:54:22.667Z,93.76
2022-08-22T21:57:16.967Z,94.19
2022-08-22T21:59:59.684Z,94.57
2022-08-22T22:02:39.816Z,95.60
2022-08-22T22:05:12.041Z,95.56
2022-08-22T22:07:45.001Z,96.05
2022-08-22T22:10:18.960Z,96.21
2022-08-22T22:12:53.270Z,96.34
2022-08-22T22:15:27.320Z,96.60
2022-08-22T22:17:58.354Z,96.78
2022-08-22T22:20:30.322Z,97.09
2022-08-22T22:23:01.043Z,97.40
2022-08-22T22:25:39.506Z,97.69
2022-08-22T22:28:24.449Z,97.89
2022-08-22T22:30:55.325Z,97.46
2022-08-22T22:33:30.769Z,97.63
2022-08-22T22:36:08.612Z,97.91
2022-08-22T22:38:41.623Z,97.85
2022-08-22T22:41:12.359Z,98.24
2022-08-22T22:43:42.929Z,98.16
2022-08-22T22:46:13.218Z,98.62
2022-08-22T22:48:43.630Z,98.95
2022-08-22T22:51:14.976Z,99.01
2022-08-22T22:53:46.092Z,99.01
2022-08-22T22:56:21.740Z,99.43
2022-08-22T22:59:00.609Z,99.38
2022-08-22T23:02:11.304Z,99.97
2022-08-22T23:04:44.866Z,99.80
2022-08-22T23:07:16.918Z,99.72
2022-08-22T23:09:47.961Z,99.99
2022-08-22T23:12:18.915Z,99.99
2022-08-22T23:14:52.521Z,99.99
2022-08-22T23:17:22.697Z,99.99
2022-08-22T23:19:53.858Z,99.99
2022-08-22T23:22:24.538Z,99.99
2022-08-22T23:24:54.739Z,99.99
2022-08-22T23:27:25.031Z,99.99
2022-08-22T23:29:55.459Z,99.99
2022-08-22T23:32:25.946Z,99.99
2022-08-22T23:34:57.367Z,99.99
2022-08-22T23:37:27.549Z,99.99
2022-08-22T23:39:57.755Z,99.99
2022-08-22T23:42:28.327Z,99.99
2022-08-22T23:44:58.769Z,99.99
2022-08-22T23:47:28.936Z,99.99
2022-08-22T23:49:58.933Z,99.99
2022-08-22T23:52:35.242Z,99.99
2022-08-22T23:55:06.072Z,99.99
2022-08-22T23:57:36.863Z,99.99
